sensor_id;sensor_type;location;lat;lon;timestamp;pressure;altitude;pressure_sealevel;temperature
58929;BMP180;44713;53.378;10.022;2023-03-19T00:00:50;100922.00;;;10.10
58929;BMP180;44713;53.378;10.022;2023-03-19T00:03:15;100932.00;;;10.10
58929;BMP180;44713;53.378;10.022;2023-03-19T00:05:49;100930.00;;;10.10
58929;BMP180;44713;53.378;10.022;2023-03-19T00:08:14;100923.00;;;10.10
58929;BMP180;44713;53.378;10.022;2023-03-19T00:10:40;100920.00;;;10.10
58929;BMP180;44713;53.378;10.022;2023-03-19T00:13:05;100924.00;;;10.00
58929;BMP180;44713;53.378;10.022;2023-03-19T00:15:31;100922.00;;;10.00
58929;BMP180;44713;53.378;10.022;2023-03-19T00:17:56;100931.00;;;10.10
58929;BMP180;44713;53.378;10.022;2023-03-19T00:20:21;100926.00;;;10.10
58929;BMP180;44713;53.378;10.022;2023-03-19T00:22:47;100924.00;;;10.10
58929;BMP180;44713;53.378;10.022;2023-03-19T00:25:12;100930.00;;;10.10
58929;BMP180;44713;53.378;10.022;2023-03-19T00:27:37;100933.00;;;10.10
58929;BMP180;44713;53.378;10.022;2023-03-19T00:30:05;100933.00;;;10.10
58929;BMP180;44713;53.378;10.022;2023-03-19T00:32:30;100929.00;;;10.10
58929;BMP180;44713;53.378;10.022;2023-03-19T00:34:57;100932.00;;;10.10
58929;BMP180;44713;53.378;10.022;2023-03-19T00:37:22;100927.00;;;10.00
58929;BMP180;44713;53.378;10.022;2023-03-19T00:39:48;100933.00;;;10.00
58929;BMP180;44713;53.378;10.022;2023-03-19T00:42:13;100935.00;;;10.00
58929;BMP180;44713;53.378;10.022;2023-03-19T00:44:39;100935.00;;;9.90
58929;BMP180;44713;53.378;10.022;2023-03-19T00:47:04;100934.00;;;9.90
58929;BMP180;44713;53.378;10.022;2023-03-19T00:49:31;100937.00;;;9.80
58929;BMP180;44713;53.378;10.022;2023-03-19T00:51:56;100944.00;;;9.80
58929;BMP180;44713;53.378;10.022;2023-03-19T00:54:22;100945.00;;;9.70
58929;BMP180;44713;53.378;10.022;2023-03-19T00:56:47;100940.00;;;9.70
58929;BMP180;44713;53.378;10.022;2023-03-19T00:59:12;100935.00;;;9.70
58929;BMP180;44713;53.378;10.022;2023-03-19T01:01:38;100946.00;;;9.70
58929;BMP180;44713;53.378;10.022;2023-03-19T01:04:03;100944.00;;;9.70
58929;BMP180;44713;53.378;10.022;2023-03-19T01:06:29;100940.00;;;9.60
58929;BMP180;44713;53.378;10.022;2023-03-19T01:08:54;100946.00;;;9.60
58929;BMP180;44713;53.378;10.022;2023-03-19T01:11:20;100940.00;;;9.60
58929;BMP180;44713;53.378;10.022;2023-03-19T01:13:45;100943.00;;;9.40
58929;BMP180;44713;53.378;10.022;2023-03-19T01:16:11;100935.00;;;9.50
58929;BMP180;44713;53.378;10.022;2023-03-19T01:18:36;100942.00;;;9.50
58929;BMP180;44713;53.378;10.022;2023-03-19T01:21:02;100948.00;;;9.40
58929;BMP180;44713;53.378;10.022;2023-03-19T01:23:30;100942.00;;;9.40
58929;BMP180;44713;53.378;10.022;2023-03-19T01:25:55;100943.00;;;9.40
58929;BMP180;44713;53.378;10.022;2023-03-19T01:28:22;100945.00;;;9.40
58929;BMP180;44713;53.378;10.022;2023-03-19T01:30:47;100936.00;;;9.50
58929;BMP180;44713;53.378;10.022;2023-03-19T01:33:33;100944.00;;;9.50
58929;BMP180;44713;53.378;10.022;2023-03-19T01:36:01;100933.00;;;9.50
58929;BMP180;44713;53.378;10.022;2023-03-19T01:38:35;100937.00;;;9.60
58929;BMP180;44713;53.378;10.022;2023-03-19T01:41:04;100930.00;;;9.50
58929;BMP180;44713;53.378;10.022;2023-03-19T01:43:31;100933.00;;;9.50
58929;BMP180;44713;53.378;10.022;2023-03-19T01:46:13;100933.00;;;9.50
58929;BMP180;44713;53.378;10.022;2023-03-19T01:48:51;100924.00;;;9.50
58929;BMP180;44713;53.378;10.022;2023-03-19T01:51:22;100930.00;;;9.50
58929;BMP180;44713;53.378;10.022;2023-03-19T01:54:06;100935.00;;;9.50
58929;BMP180;44713;53.378;10.022;2023-03-19T01:56:41;100937.00;;;9.40
58929;BMP180;44713;53.378;10.022;2023-03-19T01:59:18;100943.00;;;9.40
58929;BMP180;44713;53.378;10.022;2023-03-19T02:04:42;100933.00;;;9.70
58929;BMP180;44713;53.378;10.022;2023-03-19T02:07:09;100929.00;;;9.70
58929;BMP180;44713;53.378;10.022;2023-03-19T02:09:36;100923.00;;;9.60
58929;BMP180;44713;53.378;10.022;2023-03-19T02:12:01;100922.00;;;9.60
58929;BMP180;44713;53.378;10.022;2023-03-19T02:14:28;100928.00;;;9.60
58929;BMP180;44713;53.378;10.022;2023-03-19T02:16:53;100919.00;;;9.70
58929;BMP180;44713;53.378;10.022;2023-03-19T02:19:30;100924.00;;;9.60
58929;BMP180;44713;53.378;10.022;2023-03-19T02:21:57;100922.00;;;9.60
58929;BMP180;44713;53.378;10.022;2023-03-19T02:24:28;100919.00;;;9.60
58929;BMP180;44713;53.378;10.022;2023-03-19T02:27:06;100929.00;;;9.70
58929;BMP180;44713;53.378;10.022;2023-03-19T02:29:32;100928.00;;;9.70
58929;BMP180;44713;53.378;10.022;2023-03-19T02:31:58;100921.00;;;9.70
58929;BMP180;44713;53.378;10.022;2023-03-19T02:36:53;100923.00;;;9.80
58929;BMP180;44713;53.378;10.022;2023-03-19T02:39:25;100911.00;;;9.70
58929;BMP180;44713;53.378;10.022;2023-03-19T02:41:52;100921.00;;;9.80
58929;BMP180;44713;53.378;10.022;2023-03-19T02:44:18;100923.00;;;9.70
58929;BMP180;44713;53.378;10.022;2023-03-19T02:46:44;100923.00;;;9.80
58929;BMP180;44713;53.378;10.022;2023-03-19T02:49:10;100921.00;;;9.70
58929;BMP180;44713;53.378;10.022;2023-03-19T02:51:37;100925.00;;;9.70
58929;BMP180;44713;53.378;10.022;2023-03-19T02:54:03;100920.00;;;9.70
58929;BMP180;44713;53.378;10.022;2023-03-19T02:56:28;100927.00;;;9.60
58929;BMP180;44713;53.378;10.022;2023-03-19T02:58:54;100924.00;;;9.60
58929;BMP180;44713;53.378;10.022;2023-03-19T03:01:19;100932.00;;;9.50
58929;BMP180;44713;53.378;10.022;2023-03-19T03:03:45;100927.00;;;9.50
58929;BMP180;44713;53.378;10.022;2023-03-19T03:06:11;100932.00;;;9.50
58929;BMP180;44713;53.378;10.022;2023-03-19T03:08:36;100926.00;;;9.30
58929;BMP180;44713;53.378;10.022;2023-03-19T03:11:02;100934.00;;;9.30
58929;BMP180;44713;53.378;10.022;2023-03-19T03:13:28;100929.00;;;9.30
58929;BMP180;44713;53.378;10.022;2023-03-19T03:15:54;100930.00;;;9.20
58929;BMP180;44713;53.378;10.022;2023-03-19T03:18:19;100928.00;;;9.20
58929;BMP180;44713;53.378;10.022;2023-03-19T03:20:45;100935.00;;;9.20
58929;BMP180;44713;53.378;10.022;2023-03-19T03:23:11;100935.00;;;9.10
58929;BMP180;44713;53.378;10.022;2023-03-19T03:25:37;100934.00;;;9.00
58929;BMP180;44713;53.378;10.022;2023-03-19T03:28:02;100932.00;;;9.10
58929;BMP180;44713;53.378;10.022;2023-03-19T03:30:27;100926.00;;;9.10
58929;BMP180;44713;53.378;10.022;2023-03-19T03:32:53;100938.00;;;9.10
58929;BMP180;44713;53.378;10.022;2023-03-19T03:35:19;100935.00;;;9.00
58929;BMP180;44713;53.378;10.022;2023-03-19T03:37:48;100942.00;;;8.90
58929;BMP180;44713;53.378;10.022;2023-03-19T03:40:13;100941.00;;;8.90
58929;BMP180;44713;53.378;10.022;2023-03-19T03:42:40;100930.00;;;8.80
58929;BMP180;44713;53.378;10.022;2023-03-19T03:45:07;100931.00;;;8.70
58929;BMP180;44713;53.378;10.022;2023-03-19T03:47:34;100930.00;;;8.70
58929;BMP180;44713;53.378;10.022;2023-03-19T03:50:00;100928.00;;;8.70
58929;BMP180;44713;53.378;10.022;2023-03-19T03:52:26;100930.00;;;8.70
58929;BMP180;44713;53.378;10.022;2023-03-19T03:54:56;100933.00;;;8.70
58929;BMP180;44713;53.378;10.022;2023-03-19T03:57:23;100928.00;;;8.60
58929;BMP180;44713;53.378;10.022;2023-03-19T03:59:48;100937.00;;;8.60
58929;BMP180;44713;53.378;10.022;2023-03-19T04:02:13;100938.00;;;8.50
58929;BMP180;44713;53.378;10.022;2023-03-19T04:04:40;100930.00;;;8.50
58929;BMP180;44713;53.378;10.022;2023-03-19T04:07:06;100928.00;;;8.50
58929;BMP180;44713;53.378;10.022;2023-03-19T04:09:40;100929.00;;;8.50
58929;BMP180;44713;53.378;10.022;2023-03-19T04:12:06;100936.00;;;8.50
58929;BMP180;44713;53.378;10.022;2023-03-19T04:14:31;100941.00;;;8.50
58929;BMP180;44713;53.378;10.022;2023-03-19T04:16:57;100940.00;;;8.40
58929;BMP180;44713;53.378;10.022;2023-03-19T04:19:22;100935.00;;;8.40
58929;BMP180;44713;53.378;10.022;2023-03-19T04:21:48;100940.00;;;8.30
58929;BMP180;44713;53.378;10.022;2023-03-19T04:24:14;100934.00;;;8.30
58929;BMP180;44713;53.378;10.022;2023-03-19T04:26:40;100935.00;;;8.30
58929;BMP180;44713;53.378;10.022;2023-03-19T04:29:06;100946.00;;;8.30
58929;BMP180;44713;53.378;10.022;2023-03-19T04:31:35;100941.00;;;8.20
58929;BMP180;44713;53.378;10.022;2023-03-19T04:34:01;100936.00;;;8.10
58929;BMP180;44713;53.378;10.022;2023-03-19T04:36:26;100943.00;;;8.10
58929;BMP180;44713;53.378;10.022;2023-03-19T04:38:51;100939.00;;;8.10
58929;BMP180;44713;53.378;10.022;2023-03-19T04:41:18;100934.00;;;8.10
58929;BMP180;44713;53.378;10.022;2023-03-19T04:43:58;100931.00;;;8.00
58929;BMP180;44713;53.378;10.022;2023-03-19T04:46:25;100940.00;;;7.90
58929;BMP180;44713;53.378;10.022;2023-03-19T04:48:50;100946.00;;;7.90
58929;BMP180;44713;53.378;10.022;2023-03-19T04:51:16;100943.00;;;7.90
58929;BMP180;44713;53.378;10.022;2023-03-19T04:53:42;100939.00;;;7.90
58929;BMP180;44713;53.378;10.022;2023-03-19T04:56:08;100939.00;;;7.90
58929;BMP180;44713;53.378;10.022;2023-03-19T04:58:33;100936.00;;;7.90
58929;BMP180;44713;53.378;10.022;2023-03-19T05:01:01;100940.00;;;7.90
58929;BMP180;44713;53.378;10.022;2023-03-19T05:03:46;100936.00;;;8.00
58929;BMP180;44713;53.378;10.022;2023-03-19T05:06:12;100938.00;;;8.00
58929;BMP180;44713;53.378;10.022;2023-03-19T05:08:37;100934.00;;;8.00
58929;BMP180;44713;53.378;10.022;2023-03-19T05:11:03;100930.00;;;8.00
58929;BMP180;44713;53.378;10.022;2023-03-19T05:13:37;100927.00;;;8.10
58929;BMP180;44713;53.378;10.022;2023-03-19T05:16:02;100929.00;;;8.10
58929;BMP180;44713;53.378;10.022;2023-03-19T05:18:29;100934.00;;;8.20
58929;BMP180;44713;53.378;10.022;2023-03-19T05:20:54;100931.00;;;8.20
58929;BMP180;44713;53.378;10.022;2023-03-19T05:23:21;100938.00;;;8.00
58929;BMP180;44713;53.378;10.022;2023-03-19T05:25:58;100949.00;;;7.90
58929;BMP180;44713;53.378;10.022;2023-03-19T05:28:44;100946.00;;;7.90
58929;BMP180;44713;53.378;10.022;2023-03-19T05:31:11;100941.00;;;7.90
58929;BMP180;44713;53.378;10.022;2023-03-19T05:33:42;100946.00;;;7.90
58929;BMP180;44713;53.378;10.022;2023-03-19T05:36:08;100948.00;;;7.90
58929;BMP180;44713;53.378;10.022;2023-03-19T05:38:45;100947.00;;;7.90
58929;BMP180;44713;53.378;10.022;2023-03-19T05:41:17;100942.00;;;7.90
58929;BMP180;44713;53.378;10.022;2023-03-19T05:43:53;100950.00;;;7.90
58929;BMP180;44713;53.378;10.022;2023-03-19T05:46:34;100946.00;;;7.90
58929;BMP180;44713;53.378;10.022;2023-03-19T05:48:59;100950.00;;;7.90
58929;BMP180;44713;53.378;10.022;2023-03-19T05:51:25;100948.00;;;8.00
58929;BMP180;44713;53.378;10.022;2023-03-19T05:53:50;100946.00;;;8.00
58929;BMP180;44713;53.378;10.022;2023-03-19T05:56:32;100945.00;;;8.00
58929;BMP180;44713;53.378;10.022;2023-03-19T05:59:17;100945.00;;;8.10
58929;BMP180;44713;53.378;10.022;2023-03-19T06:01:54;100950.00;;;8.00
58929;BMP180;44713;53.378;10.022;2023-03-19T06:04:20;100966.00;;;8.00
58929;BMP180;44713;53.378;10.022;2023-03-19T06:06:45;100949.00;;;8.00
58929;BMP180;44713;53.378;10.022;2023-03-19T06:09:11;100939.00;;;8.10
58929;BMP180;44713;53.378;10.022;2023-03-19T06:11:39;100958.00;;;8.20
58929;BMP180;44713;53.378;10.022;2023-03-19T06:14:24;100949.00;;;8.20
58929;BMP180;44713;53.378;10.022;2023-03-19T06:17:09;100956.00;;;8.30
58929;BMP180;44713;53.378;10.022;2023-03-19T06:19:34;100962.00;;;8.40
58929;BMP180;44713;53.378;10.022;2023-03-19T06:22:01;100966.00;;;8.50
58929;BMP180;44713;53.378;10.022;2023-03-19T06:24:26;100961.00;;;8.60
58929;BMP180;44713;53.378;10.022;2023-03-19T06:26:54;100961.00;;;8.70
58929;BMP180;44713;53.378;10.022;2023-03-19T06:29:20;100965.00;;;8.80
58929;BMP180;44713;53.378;10.022;2023-03-19T06:31:49;100971.00;;;8.80
58929;BMP180;44713;53.378;10.022;2023-03-19T06:34:35;100972.00;;;8.90
58929;BMP180;44713;53.378;10.022;2023-03-19T06:37:00;100971.00;;;9.00
58929;BMP180;44713;53.378;10.022;2023-03-19T06:39:26;100973.00;;;9.00
58929;BMP180;44713;53.378;10.022;2023-03-19T06:41:51;100983.00;;;9.10
58929;BMP180;44713;53.378;10.022;2023-03-19T06:44:20;100976.00;;;9.10
58929;BMP180;44713;53.378;10.022;2023-03-19T06:46:45;100975.00;;;9.10
58929;BMP180;44713;53.378;10.022;2023-03-19T06:49:10;100978.00;;;9.30
58929;BMP180;44713;53.378;10.022;2023-03-19T06:51:36;100976.00;;;9.40
58929;BMP180;44713;53.378;10.022;2023-03-19T06:54:01;100981.00;;;9.60
58929;BMP180;44713;53.378;10.022;2023-03-19T06:56:27;100983.00;;;9.60
58929;BMP180;44713;53.378;10.022;2023-03-19T06:58:53;100980.00;;;9.70
58929;BMP180;44713;53.378;10.022;2023-03-19T07:01:18;100985.00;;;9.80
58929;BMP180;44713;53.378;10.022;2023-03-19T07:03:44;100985.00;;;9.80
58929;BMP180;44713;53.378;10.022;2023-03-19T07:06:09;100989.00;;;9.90
58929;BMP180;44713;53.378;10.022;2023-03-19T07:08:35;100988.00;;;9.90
58929;BMP180;44713;53.378;10.022;2023-03-19T07:11:05;100988.00;;;10.00
58929;BMP180;44713;53.378;10.022;2023-03-19T07:13:31;100991.00;;;10.10
58929;BMP180;44713;53.378;10.022;2023-03-19T07:15:57;101000.00;;;10.20
58929;BMP180;44713;53.378;10.022;2023-03-19T07:18:23;100999.00;;;10.30
58929;BMP180;44713;53.378;10.022;2023-03-19T07:20:48;100985.00;;;10.40
58929;BMP180;44713;53.378;10.022;2023-03-19T07:23:13;100994.00;;;10.50
58929;BMP180;44713;53.378;10.022;2023-03-19T07:25:39;100993.00;;;10.70
58929;BMP180;44713;53.378;10.022;2023-03-19T07:28:04;100998.00;;;10.80
58929;BMP180;44713;53.378;10.022;2023-03-19T07:30:30;100996.00;;;10.90
58929;BMP180;44713;53.378;10.022;2023-03-19T07:32:55;101003.00;;;11.10
58929;BMP180;44713;53.378;10.022;2023-03-19T07:35:21;101005.00;;;11.10
58929;BMP180;44713;53.378;10.022;2023-03-19T07:37:46;101008.00;;;11.20
58929;BMP180;44713;53.378;10.022;2023-03-19T07:40:12;101007.00;;;11.20
58929;BMP180;44713;53.378;10.022;2023-03-19T07:42:37;101014.00;;;11.30
58929;BMP180;44713;53.378;10.022;2023-03-19T07:45:03;101010.00;;;11.30
58929;BMP180;44713;53.378;10.022;2023-03-19T07:47:29;101016.00;;;11.40
58929;BMP180;44713;53.378;10.022;2023-03-19T07:49:55;101021.00;;;11.50
58929;BMP180;44713;53.378;10.022;2023-03-19T07:52:21;101018.00;;;11.50
58929;BMP180;44713;53.378;10.022;2023-03-19T07:54:46;101013.00;;;11.50
58929;BMP180;44713;53.378;10.022;2023-03-19T07:57:12;101015.00;;;11.60
58929;BMP180;44713;53.378;10.022;2023-03-19T07:59:37;101016.00;;;11.70
58929;BMP180;44713;53.378;10.022;2023-03-19T08:02:02;101016.00;;;11.70
58929;BMP180;44713;53.378;10.022;2023-03-19T08:04:28;101015.00;;;11.80
58929;BMP180;44713;53.378;10.022;2023-03-19T08:06:53;101017.00;;;11.80
58929;BMP180;44713;53.378;10.022;2023-03-19T08:09:19;101018.00;;;11.90
58929;BMP180;44713;53.378;10.022;2023-03-19T08:11:44;101013.00;;;11.90
58929;BMP180;44713;53.378;10.022;2023-03-19T08:14:10;101009.00;;;12.00
58929;BMP180;44713;53.378;10.022;2023-03-19T08:16:35;101001.00;;;12.10
58929;BMP180;44713;53.378;10.022;2023-03-19T08:19:01;101008.00;;;12.20
58929;BMP180;44713;53.378;10.022;2023-03-19T08:21:26;101007.00;;;12.20
58929;BMP180;44713;53.378;10.022;2023-03-19T08:23:52;101021.00;;;12.30
58929;BMP180;44713;53.378;10.022;2023-03-19T08:26:17;101017.00;;;12.40
58929;BMP180;44713;53.378;10.022;2023-03-19T08:28:43;101021.00;;;12.40
58929;BMP180;44713;53.378;10.022;2023-03-19T08:31:10;101017.00;;;12.60
58929;BMP180;44713;53.378;10.022;2023-03-19T08:33:36;101020.00;;;12.70
58929;BMP180;44713;53.378;10.022;2023-03-19T08:36:12;101020.00;;;12.90
58929;BMP180;44713;53.378;10.022;2023-03-19T08:38:38;101025.00;;;13.00
58929;BMP180;44713;53.378;10.022;2023-03-19T08:41:04;101018.00;;;13.10
58929;BMP180;44713;53.378;10.022;2023-03-19T08:43:31;101022.00;;;13.20
58929;BMP180;44713;53.378;10.022;2023-03-19T08:45:56;101019.00;;;13.40
58929;BMP180;44713;53.378;10.022;2023-03-19T08:48:22;101033.00;;;13.50
58929;BMP180;44713;53.378;10.022;2023-03-19T08:50:54;101022.00;;;13.60
58929;BMP180;44713;53.378;10.022;2023-03-19T08:53:20;101020.00;;;13.80
58929;BMP180;44713;53.378;10.022;2023-03-19T08:55:50;101015.00;;;13.90
58929;BMP180;44713;53.378;10.022;2023-03-19T08:58:16;101026.00;;;14.10
58929;BMP180;44713;53.378;10.022;2023-03-19T09:00:41;101025.00;;;14.30
58929;BMP180;44713;53.378;10.022;2023-03-19T09:03:07;101027.00;;;14.30
58929;BMP180;44713;53.378;10.022;2023-03-19T09:05:32;101026.00;;;14.40
58929;BMP180;44713;53.378;10.022;2023-03-19T09:07:57;101016.00;;;14.50
58929;BMP180;44713;53.378;10.022;2023-03-19T09:10:23;101027.00;;;14.50
58929;BMP180;44713;53.378;10.022;2023-03-19T09:12:48;101036.00;;;14.60
58929;BMP180;44713;53.378;10.022;2023-03-19T09:15:13;101033.00;;;14.50
58929;BMP180;44713;53.378;10.022;2023-03-19T09:17:39;101037.00;;;14.50
58929;BMP180;44713;53.378;10.022;2023-03-19T09:20:05;101034.00;;;14.60
58929;BMP180;44713;53.378;10.022;2023-03-19T09:22:31;101036.00;;;14.70
58929;BMP180;44713;53.378;10.022;2023-03-19T09:24:57;101032.00;;;14.80
58929;BMP180;44713;53.378;10.022;2023-03-19T09:27:22;101031.00;;;14.70
58929;BMP180;44713;53.378;10.022;2023-03-19T09:29:48;101028.00;;;14.90
58929;BMP180;44713;53.378;10.022;2023-03-19T09:32:13;101032.00;;;15.10
58929;BMP180;44713;53.378;10.022;2023-03-19T09:34:38;101035.00;;;15.30
58929;BMP180;44713;53.378;10.022;2023-03-19T09:37:04;101037.00;;;15.50
58929;BMP180;44713;53.378;10.022;2023-03-19T09:39:30;101037.00;;;15.80
58929;BMP180;44713;53.378;10.022;2023-03-19T09:41:59;101036.00;;;15.90
58929;BMP180;44713;53.378;10.022;2023-03-19T09:44:28;101030.00;;;16.20
58929;BMP180;44713;53.378;10.022;2023-03-19T09:49:45;101042.00;;;16.30
58929;BMP180;44713;53.378;10.022;2023-03-19T09:55:10;101039.00;;;16.50
58929;BMP180;44713;53.378;10.022;2023-03-19T09:57:38;101031.00;;;16.60
58929;BMP180;44713;53.378;10.022;2023-03-19T10:00:34;101037.00;;;16.90
58929;BMP180;44713;53.378;10.022;2023-03-19T10:03:17;101037.00;;;16.90
58929;BMP180;44713;53.378;10.022;2023-03-19T10:14:08;101038.00;;;17.20
58929;BMP180;44713;53.378;10.022;2023-03-19T10:16:43;101041.00;;;17.40
58929;BMP180;44713;53.378;10.022;2023-03-19T10:19:13;101030.00;;;17.60
58929;BMP180;44713;53.378;10.022;2023-03-19T10:22:02;101039.00;;;17.70
58929;BMP180;44713;53.378;10.022;2023-03-19T10:24:35;101035.00;;;17.80
58929;BMP180;44713;53.378;10.022;2023-03-19T10:27:09;101038.00;;;17.80
58929;BMP180;44713;53.378;10.022;2023-03-19T10:29:36;101027.00;;;17.90
58929;BMP180;44713;53.378;10.022;2023-03-19T10:34:42;101036.00;;;18.10
58929;BMP180;44713;53.378;10.022;2023-03-19T10:37:20;101037.00;;;18.30
58929;BMP180;44713;53.378;10.022;2023-03-19T10:39:48;101038.00;;;18.30
58929;BMP180;44713;53.378;10.022;2023-03-19T10:42:38;101036.00;;;18.50
58929;BMP180;44713;53.378;10.022;2023-03-19T10:47:51;101042.00;;;19.00
58929;BMP180;44713;53.378;10.022;2023-03-19T10:50:22;101032.00;;;19.10
58929;BMP180;44713;53.378;10.022;2023-03-19T10:55:52;101031.00;;;19.10
58929;BMP180;44713;53.378;10.022;2023-03-19T10:58:20;101037.00;;;19.30
58929;BMP180;44713;53.378;10.022;2023-03-19T11:00:56;101034.00;;;19.70
58929;BMP180;44713;53.378;10.022;2023-03-19T11:08:29;101035.00;;;19.40
58929;BMP180;44713;53.378;10.022;2023-03-19T11:10:57;101029.00;;;19.40
58929;BMP180;44713;53.378;10.022;2023-03-19T11:13:24;101025.00;;;19.50
58929;BMP180;44713;53.378;10.022;2023-03-19T11:15:52;101030.00;;;19.60
58929;BMP180;44713;53.378;10.022;2023-03-19T11:18:20;101035.00;;;19.30
58929;BMP180;44713;53.378;10.022;2023-03-19T11:21:07;101044.00;;;19.20
58929;BMP180;44713;53.378;10.022;2023-03-19T11:23:51;101031.00;;;19.20
58929;BMP180;44713;53.378;10.022;2023-03-19T11:26:18;101035.00;;;19.30
58929;BMP180;44713;53.378;10.022;2023-03-19T11:28:50;101038.00;;;18.90
58929;BMP180;44713;53.378;10.022;2023-03-19T11:31:25;101048.00;;;18.80
58929;BMP180;44713;53.378;10.022;2023-03-19T11:39:50;101054.00;;;18.80
58929;BMP180;44713;53.378;10.022;2023-03-19T11:42:46;101044.00;;;18.70
58929;BMP180;44713;53.378;10.022;2023-03-19T11:45:24;101049.00;;;18.70
58929;BMP180;44713;53.378;10.022;2023-03-19T11:53:30;101052.00;;;18.30
58929;BMP180;44713;53.378;10.022;2023-03-19T11:56:12;101056.00;;;18.20
58929;BMP180;44713;53.378;10.022;2023-03-19T11:58:49;101048.00;;;18.30
58929;BMP180;44713;53.378;10.022;2023-03-19T12:09:03;101063.00;;;18.30
58929;BMP180;44713;53.378;10.022;2023-03-19T12:15:08;101052.00;;;18.30
58929;BMP180;44713;53.378;10.022;2023-03-19T12:17:39;101054.00;;;18.40
58929;BMP180;44713;53.378;10.022;2023-03-19T12:20:18;101059.00;;;18.40
58929;BMP180;44713;53.378;10.022;2023-03-19T12:28:05;101040.00;;;18.50
58929;BMP180;44713;53.378;10.022;2023-03-19T12:33:51;101042.00;;;18.50
58929;BMP180;44713;53.378;10.022;2023-03-19T12:36:25;101034.00;;;18.90
58929;BMP180;44713;53.378;10.022;2023-03-19T12:38:58;101042.00;;;19.10
58929;BMP180;44713;53.378;10.022;2023-03-19T12:41:27;101029.00;;;19.00
58929;BMP180;44713;53.378;10.022;2023-03-19T12:43:55;101033.00;;;19.00
58929;BMP180;44713;53.378;10.022;2023-03-19T12:46:44;101038.00;;;18.80
58929;BMP180;44713;53.378;10.022;2023-03-19T12:51:43;101039.00;;;18.70
58929;BMP180;44713;53.378;10.022;2023-03-19T12:54:26;101037.00;;;18.80
58929;BMP180;44713;53.378;10.022;2023-03-19T12:57:01;101036.00;;;19.00
58929;BMP180;44713;53.378;10.022;2023-03-19T12:59:35;101035.00;;;19.10
58929;BMP180;44713;53.378;10.022;2023-03-19T13:02:07;101034.00;;;18.90
58929;BMP180;44713;53.378;10.022;2023-03-19T13:04:55;101034.00;;;18.80
58929;BMP180;44713;53.378;10.022;2023-03-19T13:07:27;101035.00;;;18.70
58929;BMP180;44713;53.378;10.022;2023-03-19T13:10:09;101040.00;;;18.30
58929;BMP180;44713;53.378;10.022;2023-03-19T13:12:37;101052.00;;;18.30
58929;BMP180;44713;53.378;10.022;2023-03-19T13:15:07;101044.00;;;18.30
58929;BMP180;44713;53.378;10.022;2023-03-19T13:17:45;101041.00;;;18.30
58929;BMP180;44713;53.378;10.022;2023-03-19T13:20:23;101043.00;;;18.20
58929;BMP180;44713;53.378;10.022;2023-03-19T13:22:58;101049.00;;;18.20
58929;BMP180;44713;53.378;10.022;2023-03-19T13:25:36;101049.00;;;18.30
58929;BMP180;44713;53.378;10.022;2023-03-19T13:28:08;101050.00;;;18.30
58929;BMP180;44713;53.378;10.022;2023-03-19T13:30:35;101040.00;;;18.30
58929;BMP180;44713;53.378;10.022;2023-03-19T13:33:18;101039.00;;;18.20
58929;BMP180;44713;53.378;10.022;2023-03-19T13:35:48;101044.00;;;18.00
58929;BMP180;44713;53.378;10.022;2023-03-19T13:38:19;101042.00;;;17.80
58929;BMP180;44713;53.378;10.022;2023-03-19T13:40:47;101035.00;;;17.60
58929;BMP180;44713;53.378;10.022;2023-03-19T13:45:51;101045.00;;;17.40
58929;BMP180;44713;53.378;10.022;2023-03-19T13:50:53;101054.00;;;17.20
58929;BMP180;44713;53.378;10.022;2023-03-19T13:56:08;101053.00;;;17.00
58929;BMP180;44713;53.378;10.022;2023-03-19T14:03:59;101059.00;;;16.80
58929;BMP180;44713;53.378;10.022;2023-03-19T14:06:41;101060.00;;;16.70
58929;BMP180;44713;53.378;10.022;2023-03-19T14:09:31;101073.00;;;16.30
58929;BMP180;44713;53.378;10.022;2023-03-19T14:22:37;101091.00;;;15.00
58929;BMP180;44713;53.378;10.022;2023-03-19T14:25:17;101078.00;;;15.00
58929;BMP180;44713;53.378;10.022;2023-03-19T14:27:48;101084.00;;;15.30
58929;BMP180;44713;53.378;10.022;2023-03-19T14:30:28;101071.00;;;15.80
58929;BMP180;44713;53.378;10.022;2023-03-19T14:32:56;101088.00;;;15.80
58929;BMP180;44713;53.378;10.022;2023-03-19T14:35:24;101090.00;;;15.90
58929;BMP180;44713;53.378;10.022;2023-03-19T14:37:52;101085.00;;;15.90
58929;BMP180;44713;53.378;10.022;2023-03-19T14:40:38;101084.00;;;15.90
58929;BMP180;44713;53.378;10.022;2023-03-19T14:52:05;101079.00;;;15.30
58929;BMP180;44713;53.378;10.022;2023-03-19T14:54:45;101083.00;;;15.20
58929;BMP180;44713;53.378;10.022;2023-03-19T14:57:21;101076.00;;;15.50
58929;BMP180;44713;53.378;10.022;2023-03-19T14:59:49;101082.00;;;15.30
58929;BMP180;44713;53.378;10.022;2023-03-19T15:02:40;101080.00;;;15.30
58929;BMP180;44713;53.378;10.022;2023-03-19T15:05:27;101080.00;;;15.30
58929;BMP180;44713;53.378;10.022;2023-03-19T15:07:59;101080.00;;;15.70
58929;BMP180;44713;53.378;10.022;2023-03-19T15:10:33;101072.00;;;16.00
58929;BMP180;44713;53.378;10.022;2023-03-19T15:14:13;101075.00;;;16.10
58929;BMP180;44713;53.378;10.022;2023-03-19T15:16:25;101072.00;;;16.50
58929;BMP180;44713;53.378;10.022;2023-03-19T15:18:52;101086.00;;;16.70
58929;BMP180;44713;53.378;10.022;2023-03-19T15:21:19;101080.00;;;16.80
58929;BMP180;44713;53.378;10.022;2023-03-19T15:23:46;101075.00;;;16.80
58929;BMP180;44713;53.378;10.022;2023-03-19T15:26:11;101081.00;;;16.90
58929;BMP180;44713;53.378;10.022;2023-03-19T15:28:48;101077.00;;;16.90
58929;BMP180;44713;53.378;10.022;2023-03-19T15:31:14;101081.00;;;16.90
58929;BMP180;44713;53.378;10.022;2023-03-19T15:33:41;101081.00;;;16.70
58929;BMP180;44713;53.378;10.022;2023-03-19T15:36:07;101090.00;;;16.60
58929;BMP180;44713;53.378;10.022;2023-03-19T15:38:38;101084.00;;;16.60
58929;BMP180;44713;53.378;10.022;2023-03-19T15:41:06;101083.00;;;16.40